sensor_id;sensor_type;location;lat;lon;timestamp;temperature;humidity
23301;DHT22;11819;51.394;12.340;2023-08-21T00:01:29;23.90;90.70
23301;DHT22;11819;51.394;12.340;2023-08-21T00:03:55;23.90;90.80
23301;DHT22;11819;51.394;12.340;2023-08-21T00:06:21;23.90;90.80
23301;DHT22;11819;51.394;12.340;2023-08-21T00:08:46;23.90;90.80
23301;DHT22;11819;51.394;12.340;2023-08-21T00:11:12;23.90;90.80
23301;DHT22;11819;51.394;12.340;2023-08-21T00:13:37;23.90;90.80
23301;DHT22;11819;51.394;12.340;2023-08-21T00:16:03;23.80;90.80
23301;DHT22;11819;51.394;12.340;2023-08-21T00:18:29;23.80;90.90
23301;DHT22;11819;51.394;12.340;2023-08-21T00:20:54;23.80;91.00
23301;DHT22;11819;51.394;12.340;2023-08-21T00:23:20;23.70;90.80
23301;DHT22;11819;51.394;12.340;2023-08-21T00:25:47;23.70;90.80
23301;DHT22;11819;51.394;12.340;2023-08-21T00:28:13;23.80;90.90
23301;DHT22;11819;51.394;12.340;2023-08-21T00:30:39;23.70;90.90
23301;DHT22;11819;51.394;12.340;2023-08-21T00:33:05;23.70;90.90
23301;DHT22;11819;51.394;12.340;2023-08-21T00:35:31;23.70;90.80
23301;DHT22;11819;51.394;12.340;2023-08-21T00:37:56;23.70;91.00
23301;DHT22;11819;51.394;12.340;2023-08-21T00:40:22;23.70;91.10
23301;DHT22;11819;51.394;12.340;2023-08-21T00:42:48;23.60;91.30
23301;DHT22;11819;51.394;12.340;2023-08-21T00:45:14;23.50;91.30
23301;DHT22;11819;51.394;12.340;2023-08-21T00:47:40;23.50;91.40
23301;DHT22;11819;51.394;12.340;2023-08-21T00:50:07;23.50;91.50
23301;DHT22;11819;51.394;12.340;2023-08-21T00:52:34;23.50;91.50
23301;DHT22;11819;51.394;12.340;2023-08-21T00:55:00;23.50;91.60
23301;DHT22;11819;51.394;12.340;2023-08-21T00:57:27;23.50;91.60
23301;DHT22;11819;51.394;12.340;2023-08-21T00:59:53;23.40;91.50
23301;DHT22;11819;51.394;12.340;2023-08-21T01:02:19;23.50;91.50
23301;DHT22;11819;51.394;12.340;2023-08-21T01:04:45;23.40;91.50
23301;DHT22;11819;51.394;12.340;2023-08-21T01:07:10;23.40;91.60
23301;DHT22;11819;51.394;12.340;2023-08-21T01:10:17;23.40;91.60
23301;DHT22;11819;51.394;12.340;2023-08-21T01:12:50;23.30;91.50
23301;DHT22;11819;51.394;12.340;2023-08-21T01:15:21;23.30;91.50
23301;DHT22;11819;51.394;12.340;2023-08-21T01:17:49;23.30;91.50
23301;DHT22;11819;51.394;12.340;2023-08-21T01:20:14;23.30;91.60
23301;DHT22;11819;51.394;12.340;2023-08-21T01:22:42;23.30;91.70
23301;DHT22;11819;51.394;12.340;2023-08-21T01:25:15;23.20;91.70
23301;DHT22;11819;51.394;12.340;2023-08-21T01:27:47;23.20;91.70
23301;DHT22;11819;51.394;12.340;2023-08-21T01:30:14;23.20;91.80
23301;DHT22;11819;51.394;12.340;2023-08-21T01:35:06;23.10;92.20
23301;DHT22;11819;51.394;12.340;2023-08-21T01:37:32;23.10;91.80
23301;DHT22;11819;51.394;12.340;2023-08-21T01:39:59;23.10;91.80
23301;DHT22;11819;51.394;12.340;2023-08-21T01:42:25;23.10;91.70
23301;DHT22;11819;51.394;12.340;2023-08-21T01:44:50;23.10;91.70
23301;DHT22;11819;51.394;12.340;2023-08-21T01:47:16;23.10;91.90
23301;DHT22;11819;51.394;12.340;2023-08-21T01:49:42;23.10;91.50
23301;DHT22;11819;51.394;12.340;2023-08-21T01:52:08;23.10;91.60
23301;DHT22;11819;51.394;12.340;2023-08-21T01:54:33;23.10;91.70
23301;DHT22;11819;51.394;12.340;2023-08-21T01:56:59;23.10;91.80
23301;DHT22;11819;51.394;12.340;2023-08-21T01:59:25;23.00;91.70
23301;DHT22;11819;51.394;12.340;2023-08-21T02:01:50;23.00;91.80
23301;DHT22;11819;51.394;12.340;2023-08-21T02:04:16;23.00;91.90
23301;DHT22;11819;51.394;12.340;2023-08-21T02:06:42;23.00;91.90
23301;DHT22;11819;51.394;12.340;2023-08-21T02:09:09;23.00;91.90
23301;DHT22;11819;51.394;12.340;2023-08-21T02:11:35;23.00;92.00
23301;DHT22;11819;51.394;12.340;2023-08-21T02:14:01;23.00;92.00
23301;DHT22;11819;51.394;12.340;2023-08-21T02:16:26;23.00;92.10
23301;DHT22;11819;51.394;12.340;2023-08-21T02:18:53;22.90;92.10
23301;DHT22;11819;51.394;12.340;2023-08-21T02:21:19;22.90;92.20
23301;DHT22;11819;51.394;12.340;2023-08-21T02:23:45;22.90;92.20
23301;DHT22;11819;51.394;12.340;2023-08-21T02:26:10;22.90;92.20
23301;DHT22;11819;51.394;12.340;2023-08-21T02:28:39;22.90;92.30
23301;DHT22;11819;51.394;12.340;2023-08-21T02:31:09;22.80;92.40
23301;DHT22;11819;51.394;12.340;2023-08-21T02:33:36;22.80;92.50
23301;DHT22;11819;51.394;12.340;2023-08-21T02:36:01;22.70;92.50
23301;DHT22;11819;51.394;12.340;2023-08-21T02:38:29;22.70;92.60
23301;DHT22;11819;51.394;12.340;2023-08-21T02:40:56;22.70;92.60
23301;DHT22;11819;51.394;12.340;2023-08-21T02:43:22;22.70;92.60
23301;DHT22;11819;51.394;12.340;2023-08-21T02:45:47;22.60;92.70
23301;DHT22;11819;51.394;12.340;2023-08-21T02:48:13;22.60;92.50
23301;DHT22;11819;51.394;12.340;2023-08-21T02:50:38;22.40;92.60
23301;DHT22;11819;51.394;12.340;2023-08-21T02:53:04;22.40;92.70
23301;DHT22;11819;51.394;12.340;2023-08-21T02:55:30;22.30;92.80
23301;DHT22;11819;51.394;12.340;2023-08-21T02:57:55;22.30;92.90
23301;DHT22;11819;51.394;12.340;2023-08-21T03:00:21;22.40;92.90
23301;DHT22;11819;51.394;12.340;2023-08-21T03:02:46;22.40;93.00
23301;DHT22;11819;51.394;12.340;2023-08-21T03:05:12;22.40;93.00
23301;DHT22;11819;51.394;12.340;2023-08-21T03:07:39;22.40;93.00
23301;DHT22;11819;51.394;12.340;2023-08-21T03:10:06;22.30;93.00
23301;DHT22;11819;51.394;12.340;2023-08-21T03:12:32;22.30;93.10
23301;DHT22;11819;51.394;12.340;2023-08-21T03:14:58;22.30;93.00
23301;DHT22;11819;51.394;12.340;2023-08-21T03:17:24;22.30;93.00
23301;DHT22;11819;51.394;12.340;2023-08-21T03:19:50;22.30;93.00
23301;DHT22;11819;51.394;12.340;2023-08-21T03:22:15;22.30;92.90
23301;DHT22;11819;51.394;12.340;2023-08-21T03:24:42;22.40;92.90
23301;DHT22;11819;51.394;12.340;2023-08-21T03:27:08;22.40;92.80
23301;DHT22;11819;51.394;12.340;2023-08-21T03:29:33;22.40;92.70
23301;DHT22;11819;51.394;12.340;2023-08-21T03:31:59;22.40;92.50
23301;DHT22;11819;51.394;12.340;2023-08-21T03:34:25;22.30;92.40
23301;DHT22;11819;51.394;12.340;2023-08-21T03:36:54;22.20;92.60
23301;DHT22;11819;51.394;12.340;2023-08-21T03:39:20;22.00;92.80
23301;DHT22;11819;51.394;12.340;2023-08-21T03:41:47;21.90;93.20
23301;DHT22;11819;51.394;12.340;2023-08-21T03:44:12;21.90;93.40
23301;DHT22;11819;51.394;12.340;2023-08-21T03:46:38;21.90;93.30
23301;DHT22;11819;51.394;12.340;2023-08-21T03:49:04;21.90;93.40
23301;DHT22;11819;51.394;12.340;2023-08-21T03:51:29;21.90;93.50
23301;DHT22;11819;51.394;12.340;2023-08-21T03:53:55;21.90;93.60
23301;DHT22;11819;51.394;12.340;2023-08-21T03:56:22;22.00;93.50
23301;DHT22;11819;51.394;12.340;2023-08-21T03:58:48;22.10;93.40
23301;DHT22;11819;51.394;12.340;2023-08-21T04:01:14;22.10;93.30
23301;DHT22;11819;51.394;12.340;2023-08-21T04:03:40;22.10;93.30
23301;DHT22;11819;51.394;12.340;2023-08-21T04:06:06;22.10;93.30
23301;DHT22;11819;51.394;12.340;2023-08-21T04:08:33;22.10;93.30
23301;DHT22;11819;51.394;12.340;2023-08-21T04:10:58;22.10;93.30
23301;DHT22;11819;51.394;12.340;2023-08-21T04:13:25;22.10;93.40
23301;DHT22;11819;51.394;12.340;2023-08-21T04:15:53;22.10;93.40
23301;DHT22;11819;51.394;12.340;2023-08-21T04:18:19;22.00;93.60
23301;DHT22;11819;51.394;12.340;2023-08-21T04:20:47;21.80;93.90
23301;DHT22;11819;51.394;12.340;2023-08-21T04:23:12;21.70;94.30
23301;DHT22;11819;51.394;12.340;2023-08-21T04:25:38;21.70;94.60
23301;DHT22;11819;51.394;12.340;2023-08-21T04:28:04;21.60;94.70
23301;DHT22;11819;51.394;12.340;2023-08-21T04:30:29;21.60;94.70
23301;DHT22;11819;51.394;12.340;2023-08-21T04:32:56;21.60;94.90
23301;DHT22;11819;51.394;12.340;2023-08-21T04:35:23;21.60;95.10
23301;DHT22;11819;51.394;12.340;2023-08-21T04:37:49;21.70;95.00
23301;DHT22;11819;51.394;12.340;2023-08-21T04:40:17;21.80;95.00
23301;DHT22;11819;51.394;12.340;2023-08-21T04:42:45;21.90;95.00
23301;DHT22;11819;51.394;12.340;2023-08-21T04:45:11;21.90;94.80
23301;DHT22;11819;51.394;12.340;2023-08-21T04:47:38;21.80;94.90
23301;DHT22;11819;51.394;12.340;2023-08-21T04:50:05;21.80;95.10
23301;DHT22;11819;51.394;12.340;2023-08-21T04:52:30;21.80;95.20
23301;DHT22;11819;51.394;12.340;2023-08-21T04:54:58;21.80;95.30
23301;DHT22;11819;51.394;12.340;2023-08-21T04:57:24;21.90;95.20
23301;DHT22;11819;51.394;12.340;2023-08-21T04:59:50;22.00;95.20
23301;DHT22;11819;51.394;12.340;2023-08-21T05:02:17;22.00;95.20
23301;DHT22;11819;51.394;12.340;2023-08-21T05:04:42;22.10;95.10
23301;DHT22;11819;51.394;12.340;2023-08-21T05:07:08;22.20;95.00
23301;DHT22;11819;51.394;12.340;2023-08-21T05:09:34;22.20;95.00
23301;DHT22;11819;51.394;12.340;2023-08-21T05:12:00;22.20;94.90
23301;DHT22;11819;51.394;12.340;2023-08-21T05:14:26;22.30;94.90
23301;DHT22;11819;51.394;12.340;2023-08-21T05:16:52;22.30;94.90
23301;DHT22;11819;51.394;12.340;2023-08-21T05:19:19;22.30;95.00
23301;DHT22;11819;51.394;12.340;2023-08-21T05:21:46;22.20;95.20
23301;DHT22;11819;51.394;12.340;2023-08-21T05:24:11;22.20;95.40
23301;DHT22;11819;51.394;12.340;2023-08-21T05:26:42;22.20;95.60
23301;DHT22;11819;51.394;12.340;2023-08-21T05:29:08;22.20;95.70
23301;DHT22;11819;51.394;12.340;2023-08-21T05:31:33;22.20;95.70
23301;DHT22;11819;51.394;12.340;2023-08-21T05:33:59;22.20;95.90
23301;DHT22;11819;51.394;12.340;2023-08-21T05:36:25;22.30;96.10
23301;DHT22;11819;51.394;12.340;2023-08-21T05:38:51;22.30;96.10
23301;DHT22;11819;51.394;12.340;2023-08-21T05:41:18;22.40;96.10
23301;DHT22;11819;51.394;12.340;2023-08-21T05:43:45;22.50;96.10
23301;DHT22;11819;51.394;12.340;2023-08-21T05:46:12;22.50;96.00
23301;DHT22;11819;51.394;12.340;2023-08-21T05:48:37;22.60;96.00
23301;DHT22;11819;51.394;12.340;2023-08-21T05:51:03;22.60;96.00
23301;DHT22;11819;51.394;12.340;2023-08-21T05:53:31;22.70;96.00
23301;DHT22;11819;51.394;12.340;2023-08-21T05:55:56;22.80;96.10
23301;DHT22;11819;51.394;12.340;2023-08-21T05:58:22;22.80;96.00
23301;DHT22;11819;51.394;12.340;2023-08-21T06:00:48;22.80;96.00
23301;DHT22;11819;51.394;12.340;2023-08-21T06:03:14;22.90;96.10
23301;DHT22;11819;51.394;12.340;2023-08-21T06:05:53;23.00;96.10
23301;DHT22;11819;51.394;12.340;2023-08-21T06:08:18;23.00;96.00
23301;DHT22;11819;51.394;12.340;2023-08-21T06:10:44;23.10;95.80
23301;DHT22;11819;51.394;12.340;2023-08-21T06:13:10;23.20;95.70
23301;DHT22;11819;51.394;12.340;2023-08-21T06:15:36;23.20;95.60
23301;DHT22;11819;51.394;12.340;2023-08-21T06:18:03;23.30;95.60
23301;DHT22;11819;51.394;12.340;2023-08-21T06:20:28;23.30;95.50
23301;DHT22;11819;51.394;12.340;2023-08-21T06:22:54;23.40;95.50
23301;DHT22;11819;51.394;12.340;2023-08-21T06:25:20;23.40;95.40
23301;DHT22;11819;51.394;12.340;2023-08-21T06:27:46;23.40;95.40
23301;DHT22;11819;51.394;12.340;2023-08-21T06:30:12;23.40;95.50
23301;DHT22;11819;51.394;12.340;2023-08-21T06:32:38;23.50;95.50
23301;DHT22;11819;51.394;12.340;2023-08-21T06:35:04;23.50;95.30
23301;DHT22;11819;51.394;12.340;2023-08-21T06:37:30;23.50;95.40
23301;DHT22;11819;51.394;12.340;2023-08-21T06:39:56;23.60;95.20
23301;DHT22;11819;51.394;12.340;2023-08-21T06:42:22;23.70;95.20
23301;DHT22;11819;51.394;12.340;2023-08-21T06:44:50;23.70;95.00
23301;DHT22;11819;51.394;12.340;2023-08-21T06:47:16;23.60;95.20
23301;DHT22;11819;51.394;12.340;2023-08-21T06:49:41;23.70;95.20
23301;DHT22;11819;51.394;12.340;2023-08-21T06:52:07;23.70;95.10
23301;DHT22;11819;51.394;12.340;2023-08-21T06:54:32;23.70;95.00
23301;DHT22;11819;51.394;12.340;2023-08-21T06:56:59;23.70;95.00
23301;DHT22;11819;51.394;12.340;2023-08-21T06:59:24;23.70;95.30
23301;DHT22;11819;51.394;12.340;2023-08-21T07:01:50;23.60;95.40
23301;DHT22;11819;51.394;12.340;2023-08-21T07:04:16;23.70;95.40
23301;DHT22;11819;51.394;12.340;2023-08-21T07:06:42;23.70;95.30
23301;DHT22;11819;51.394;12.340;2023-08-21T07:09:08;23.70;95.20
23301;DHT22;11819;51.394;12.340;2023-08-21T07:11:33;23.80;95.10
23301;DHT22;11819;51.394;12.340;2023-08-21T07:13:59;23.70;95.10
23301;DHT22;11819;51.394;12.340;2023-08-21T07:16:24;23.70;95.20
23301;DHT22;11819;51.394;12.340;2023-08-21T07:18:52;23.60;95.20
23301;DHT22;11819;51.394;12.340;2023-08-21T07:21:17;23.50;95.50
23301;DHT22;11819;51.394;12.340;2023-08-21T07:23:43;23.40;95.90
23301;DHT22;11819;51.394;12.340;2023-08-21T07:26:08;23.40;96.10
23301;DHT22;11819;51.394;12.340;2023-08-21T07:28:34;23.40;96.20
23301;DHT22;11819;51.394;12.340;2023-08-21T07:31:01;23.30;96.40
23301;DHT22;11819;51.394;12.340;2023-08-21T07:33:27;23.40;96.50
23301;DHT22;11819;51.394;12.340;2023-08-21T07:36:01;23.40;96.40
23301;DHT22;11819;51.394;12.340;2023-08-21T07:38:27;23.50;96.30
23301;DHT22;11819;51.394;12.340;2023-08-21T07:41:05;23.50;95.90
23301;DHT22;11819;51.394;12.340;2023-08-21T07:43:33;23.50;95.80
23301;DHT22;11819;51.394;12.340;2023-08-21T07:46:04;23.40;95.80
23301;DHT22;11819;51.394;12.340;2023-08-21T07:48:31;23.40;95.90
23301;DHT22;11819;51.394;12.340;2023-08-21T07:50:56;23.30;96.00
23301;DHT22;11819;51.394;12.340;2023-08-21T07:53:23;23.20;96.10
23301;DHT22;11819;51.394;12.340;2023-08-21T07:55:48;23.10;96.20
23301;DHT22;11819;51.394;12.340;2023-08-21T07:58:14;23.10;96.20
23301;DHT22;11819;51.394;12.340;2023-08-21T08:00:40;23.10;96.30
23301;DHT22;11819;51.394;12.340;2023-08-21T08:03:08;23.10;96.30
23301;DHT22;11819;51.394;12.340;2023-08-21T08:05:34;23.20;96.40
23301;DHT22;11819;51.394;12.340;2023-08-21T08:07:59;23.20;96.30
23301;DHT22;11819;51.394;12.340;2023-08-21T08:10:25;23.30;96.10
23301;DHT22;11819;51.394;12.340;2023-08-21T08:12:51;23.30;96.10
23301;DHT22;11819;51.394;12.340;2023-08-21T08:15:18;23.40;96.10
23301;DHT22;11819;51.394;12.340;2023-08-21T08:17:43;23.50;96.00
23301;DHT22;11819;51.394;12.340;2023-08-21T08:20:12;23.60;95.90
23301;DHT22;11819;51.394;12.340;2023-08-21T08:22:37;23.70;95.70
23301;DHT22;11819;51.394;12.340;2023-08-21T08:25:04;23.80;95.60
23301;DHT22;11819;51.394;12.340;2023-08-21T08:27:32;23.90;95.50
23301;DHT22;11819;51.394;12.340;2023-08-21T08:29:58;24.00;95.20
23301;DHT22;11819;51.394;12.340;2023-08-21T08:32:23;24.10;95.20
23301;DHT22;11819;51.394;12.340;2023-08-21T08:34:49;24.10;95.00
23301;DHT22;11819;51.394;12.340;2023-08-21T08:37:15;24.20;94.60
23301;DHT22;11819;51.394;12.340;2023-08-21T08:39:41;24.10;94.40
23301;DHT22;11819;51.394;12.340;2023-08-21T08:42:08;24.10;94.20
23301;DHT22;11819;51.394;12.340;2023-08-21T08:44:35;24.10;94.40
23301;DHT22;11819;51.394;12.340;2023-08-21T08:47:01;24.10;94.50
23301;DHT22;11819;51.394;12.340;2023-08-21T08:49:27;24.10;94.40
23301;DHT22;11819;51.394;12.340;2023-08-21T08:51:54;24.10;94.60
23301;DHT22;11819;51.394;12.340;2023-08-21T08:54:21;24.00;94.90
23301;DHT22;11819;51.394;12.340;2023-08-21T08:56:47;24.00;94.60
23301;DHT22;11819;51.394;12.340;2023-08-21T08:59:13;24.00;94.60
23301;DHT22;11819;51.394;12.340;2023-08-21T09:01:41;24.00;94.50
23301;DHT22;11819;51.394;12.340;2023-08-21T09:04:07;24.00;94.10
23301;DHT22;11819;51.394;12.340;2023-08-21T09:06:33;24.00;94.20
23301;DHT22;11819;51.394;12.340;2023-08-21T09:08:59;24.10;94.00
23301;DHT22;11819;51.394;12.340;2023-08-21T09:11:25;24.10;93.60
23301;DHT22;11819;51.394;12.340;2023-08-21T09:13:53;24.20;93.50
23301;DHT22;11819;51.394;12.340;2023-08-21T09:16:20;24.20;93.80
23301;DHT22;11819;51.394;12.340;2023-08-21T09:21:20;24.40;93.90
23301;DHT22;11819;51.394;12.340;2023-08-21T09:23:46;24.50;93.40
23301;DHT22;11819;51.394;12.340;2023-08-21T09:26:19;24.60;92.80
23301;DHT22;11819;51.394;12.340;2023-08-21T09:28:49;24.70;92.90
23301;DHT22;11819;51.394;12.340;2023-08-21T09:31:16;24.70;92.70
23301;DHT22;11819;51.394;12.340;2023-08-21T09:33:42;24.80;92.50
23301;DHT22;11819;51.394;12.340;2023-08-21T09:36:11;24.90;92.00
23301;DHT22;11819;51.394;12.340;2023-08-21T09:38:38;25.00;91.80
23301;DHT22;11819;51.394;12.340;2023-08-21T09:41:06;25.00;91.30
23301;DHT22;11819;51.394;12.340;2023-08-21T09:43:32;25.20;91.60
23301;DHT22;11819;51.394;12.340;2023-08-21T09:45:58;25.20;91.00
23301;DHT22;11819;51.394;12.340;2023-08-21T09:48:26;25.30;89.50
23301;DHT22;11819;51.394;12.340;2023-08-21T09:50:55;25.30;90.10
23301;DHT22;11819;51.394;12.340;2023-08-21T09:53:22;25.30;88.70
23301;DHT22;11819;51.394;12.340;2023-08-21T09:55:50;25.40;86.30
23301;DHT22;11819;51.394;12.340;2023-08-21T09:58:19;25.40;86.40
23301;DHT22;11819;51.394;12.340;2023-08-21T10:00:45;25.40;85.30
23301;DHT22;11819;51.394;12.340;2023-08-21T10:03:18;25.40;85.20
23301;DHT22;11819;51.394;12.340;2023-08-21T10:05:45;25.50;85.60
23301;DHT22;11819;51.394;12.340;2023-08-21T10:08:15;25.50;85.80
23301;DHT22;11819;51.394;12.340;2023-08-21T10:10:41;25.60;85.40
23301;DHT22;11819;51.394;12.340;2023-08-21T10:13:07;25.60;85.40
23301;DHT22;11819;51.394;12.340;2023-08-21T10:15:36;25.70;81.50
23301;DHT22;11819;51.394;12.340;2023-08-21T10:18:22;25.70;78.50
23301;DHT22;11819;51.394;12.340;2023-08-21T10:20:50;25.80;78.20
23301;DHT22;11819;51.394;12.340;2023-08-21T10:23:27;25.80;75.50
23301;DHT22;11819;51.394;12.340;2023-08-21T10:26:00;25.90;74.70
23301;DHT22;11819;51.394;12.340;2023-08-21T10:31:31;26.00;73.80
23301;DHT22;11819;51.394;12.340;2023-08-21T10:33:58;26.00;71.00
23301;DHT22;11819;51.394;12.340;2023-08-21T10:39:14;26.10;67.40
23301;DHT22;11819;51.394;12.340;2023-08-21T10:41:40;26.10;68.60
23301;DHT22;11819;51.394;12.340;2023-08-21T10:44:06;26.10;70.50
23301;DHT22;11819;51.394;12.340;2023-08-21T10:46:52;26.10;70.40
23301;DHT22;11819;51.394;12.340;2023-08-21T10:49:18;26.20;70.80
23301;DHT22;11819;51.394;12.340;2023-08-21T10:51:44;26.30;70.90
23301;DHT22;11819;51.394;12.340;2023-08-21T10:54:13;26.30;71.60
23301;DHT22;11819;51.394;12.340;2023-08-21T10:56:39;26.40;72.50
23301;DHT22;11819;51.394;12.340;2023-08-21T10:59:05;26.50;70.80
23301;DHT22;11819;51.394;12.340;2023-08-21T11:01:46;26.50;71.30
23301;DHT22;11819;51.394;12.340;2023-08-21T11:04:12;26.60;69.40
23301;DHT22;11819;51.394;12.340;2023-08-21T11:06:38;26.60;70.10
23301;DHT22;11819;51.394;12.340;2023-08-21T11:09:04;26.70;70.30
23301;DHT22;11819;51.394;12.340;2023-08-21T11:11:30;26.70;70.00
23301;DHT22;11819;51.394;12.340;2023-08-21T11:13:56;26.70;70.00
23301;DHT22;11819;51.394;12.340;2023-08-21T11:16:21;26.70;70.40
23301;DHT22;11819;51.394;12.340;2023-08-21T11:18:47;26.70;71.40
23301;DHT22;11819;51.394;12.340;2023-08-21T11:21:13;26.80;71.40
23301;DHT22;11819;51.394;12.340;2023-08-21T11:23:41;26.80;71.00
23301;DHT22;11819;51.394;12.340;2023-08-21T11:26:10;26.90;71.70
23301;DHT22;11819;51.394;12.340;2023-08-21T11:28:36;26.90;71.60
23301;DHT22;11819;51.394;12.340;2023-08-21T11:31:02;27.00;71.80
23301;DHT22;11819;51.394;12.340;2023-08-21T11:33:28;27.10;71.70
23301;DHT22;11819;51.394;12.340;2023-08-21T11:35:54;27.10;72.30
23301;DHT22;11819;51.394;12.340;2023-08-21T11:38:24;27.20;72.00
23301;DHT22;11819;51.394;12.340;2023-08-21T11:43:22;27.40;71.40
23301;DHT22;11819;51.394;12.340;2023-08-21T11:45:48;27.40;69.80
23301;DHT22;11819;51.394;12.340;2023-08-21T11:48:14;27.50;70.30
23301;DHT22;11819;51.394;12.340;2023-08-21T11:50:40;27.60;68.80
23301;DHT22;11819;51.394;12.340;2023-08-21T11:53:05;27.70;69.30
23301;DHT22;11819;51.394;12.340;2023-08-21T11:55:32;27.70;69.90
23301;DHT22;11819;51.394;12.340;2023-08-21T11:57:57;27.80;69.50
23301;DHT22;11819;51.394;12.340;2023-08-21T12:00:29;27.90;70.60
23301;DHT22;11819;51.394;12.340;2023-08-21T12:03:00;28.00;68.70
23301;DHT22;11819;51.394;12.340;2023-08-21T12:05:29;28.10;69.10
23301;DHT22;11819;51.394;12.340;2023-08-21T12:07:55;28.10;69.80
23301;DHT22;11819;51.394;12.340;2023-08-21T12:10:25;28.20;68.20
23301;DHT22;11819;51.394;12.340;2023-08-21T12:12:51;28.40;68.30
23301;DHT22;11819;51.394;12.340;2023-08-21T12:15:17;28.50;69.70
23301;DHT22;11819;51.394;12.340;2023-08-21T12:17:43;28.60;69.10
23301;DHT22;11819;51.394;12.340;2023-08-21T12:20:09;28.80;67.00
23301;DHT22;11819;51.394;12.340;2023-08-21T12:22:38;28.90;66.80
23301;DHT22;11819;51.394;12.340;2023-08-21T12:25:05;29.10;66.60
23301;DHT22;11819;51.394;12.340;2023-08-21T12:27:31;29.20;66.50
23301;DHT22;11819;51.394;12.340;2023-08-21T12:29:57;29.40;65.60
23301;DHT22;11819;51.394;12.340;2023-08-21T12:32:22;29.50;66.10
23301;DHT22;11819;51.394;12.340;2023-08-21T12:34:48;29.80;65.90
23301;DHT22;11819;51.394;12.340;2023-08-21T12:37:14;30.10;65.00
23301;DHT22;11819;51.394;12.340;2023-08-21T12:39:40;30.20;64.10
23301;DHT22;11819;51.394;12.340;2023-08-21T12:42:05;30.50;63.10
23301;DHT22;11819;51.394;12.340;2023-08-21T12:44:33;30.60;62.50
23301;DHT22;11819;51.394;12.340;2023-08-21T12:46:59;30.80;62.90
23301;DHT22;11819;51.394;12.340;2023-08-21T12:49:25;31.00;62.30
23301;DHT22;11819;51.394;12.340;2023-08-21T12:51:50;31.20;61.60
23301;DHT22;11819;51.394;12.340;2023-08-21T12:54:16;31.50;59.50
23301;DHT22;11819;51.394;12.340;2023-08-21T12:56:41;31.60;58.40
23301;DHT22;11819;51.394;12.340;2023-08-21T12:59:07;31.70;58.60
23301;DHT22;11819;51.394;12.340;2023-08-21T13:01:33;31.90;59.00
23301;DHT22;11819;51.394;12.340;2023-08-21T13:04:00;32.00;58.90
23301;DHT22;11819;51.394;12.340;2023-08-21T13:06:26;32.10;58.80
23301;DHT22;11819;51.394;12.340;2023-08-21T13:08:52;32.20;58.30
23301;DHT22;11819;51.394;12.340;2023-08-21T13:11:18;32.30;58.50
23301;DHT22;11819;51.394;12.340;2023-08-21T13:13:44;32.60;59.20
23301;DHT22;11819;51.394;12.340;2023-08-21T13:16:10;32.80;58.00
23301;DHT22;11819;51.394;12.340;2023-08-21T13:18:35;33.00;57.20
23301;DHT22;11819;51.394;12.340;2023-08-21T13:21:01;33.20;57.50
23301;DHT22;11819;51.394;12.340;2023-08-21T13:23:29;33.30;56.10
23301;DHT22;11819;51.394;12.340;2023-08-21T13:25:56;33.40;56.60
23301;DHT22;11819;51.394;12.340;2023-08-21T13:28:23;33.40;55.90
23301;DHT22;11819;51.394;12.340;2023-08-21T13:30:48;33.50;56.60
23301;DHT22;11819;51.394;12.340;2023-08-21T13:33:15;33.70;55.90
23301;DHT22;11819;51.394;12.340;2023-08-21T13:35:46;33.90;55.30
23301;DHT22;11819;51.394;12.340;2023-08-21T13:38:14;34.10;54.90
23301;DHT22;11819;51.394;12.340;2023-08-21T13:40:40;34.10;54.50
23301;DHT22;11819;51.394;12.340;2023-08-21T13:43:06;34.10;55.10
23301;DHT22;11819;51.394;12.340;2023-08-21T13:45:33;34.20;56.00
23301;DHT22;11819;51.394;12.340;2023-08-21T13:47:58;34.40;54.30
23301;DHT22;11819;51.394;12.340;2023-08-21T13:50:24;34.50;55.10
23301;DHT22;11819;51.394;12.340;2023-08-21T13:52:50;34.60;54.70
23301;DHT22;11819;51.394;12.340;2023-08-21T13:55:16;34.60;53.40
23301;DHT22;11819;51.394;12.340;2023-08-21T13:57:41;34.80;53.80
23301;DHT22;11819;51.394;12.340;2023-08-21T14:00:09;34.90;53.70
23301;DHT22;11819;51.394;12.340;2023-08-21T14:02:38;35.00;52.50
23301;DHT22;11819;51.394;12.340;2023-08-21T14:05:04;35.20;53.20
23301;DHT22;11819;51.394;12.340;2023-08-21T14:07:31;35.40;53.50
23301;DHT22;11819;51.394;12.340;2023-08-21T14:09:56;35.60;52.80
23301;DHT22;11819;51.394;12.340;2023-08-21T14:12:22;35.70;52.90
23301;DHT22;11819;51.394;12.340;2023-08-21T14:14:48;35.80;51.90
23301;DHT22;11819;51.394;12.340;2023-08-21T14:17:13;35.80;52.70
23301;DHT22;11819;51.394;12.340;2023-08-21T14:19:39;35.80;52.10
23301;DHT22;11819;51.394;12.340;2023-08-21T14:22:05;35.90;51.80
23301;DHT22;11819;51.394;12.340;2023-08-21T14:24:30;36.00;51.20
23301;DHT22;11819;51.394;12.340;2023-08-21T14:26:56;36.10;51.70
23301;DHT22;11819;51.394;12.340;2023-08-21T14:29:22;36.20;51.00
23301;DHT22;11819;51.394;12.340;2023-08-21T14:31:48;36.10;50.70
23301;DHT22;11819;51.394;12.340;2023-08-21T14:34:14;36.00;50.60
23301;DHT22;11819;51.394;12.340;2023-08-21T14:36:41;35.90;51.30
23301;DHT22;11819;51.394;12.340;2023-08-21T14:39:08;36.00;51.50
23301;DHT22;11819;51.394;12.340;2023-08-21T14:41:37;35.90;51.90
23301;DHT22;11819;51.394;12.340;2023-08-21T14:44:03;35.60;51.80
23301;DHT22;11819;51.394;12.340;2023-08-21T14:46:28;35.10;52.50
23301;DHT22;11819;51.394;12.340;2023-08-21T14:48:54;34.50;52.40
23301;DHT22;11819;51.394;12.340;2023-08-21T14:51:19;34.00;53.20
23301;DHT22;11819;51.394;12.340;2023-08-21T14:53:45;33.90;54.50
23301;DHT22;11819;51.394;12.340;2023-08-21T14:56:11;33.60;55.20
23301;DHT22;11819;51.394;12.340;2023-08-21T14:58:36;33.20;55.10
23301;DHT22;11819;51.394;12.340;2023-08-21T15:01:02;33.00;56.60
23301;DHT22;11819;51.394;12.340;2023-08-21T15:03:28;33.10;56.90
23301;DHT22;11819;51.394;12.340;2023-08-21T15:05:54;33.50;57.00
23301;DHT22;11819;51.394;12.340;2023-08-21T15:08:19;33.60;55.40
23301;DHT22;11819;51.394;12.340;2023-08-21T15:10:45;33.60;54.30
23301;DHT22;11819;51.394;12.340;2023-08-21T15:13:10;33.80;55.70
23301;DHT22;11819;51.394;12.340;2023-08-21T15:15:36;33.90;53.80
23301;DHT22;11819;51.394;12.340;2023-08-21T15:18:01;33.60;54.60
23301;DHT22;11819;51.394;12.340;2023-08-21T15:20:27;33.20;55.70
23301;DHT22;11819;51.394;12.340;2023-08-21T15:22:53;32.90;56.80
23301;DHT22;11819;51.394;12.340;2023-08-21T15:25:18;32.60;56.20